Terminal Aerodrome Forecast
Issued by NWS

Home | Current Version | Previous Version | Text Only | Print | Product List | Glossary On
Versions: 1 2 3 4 5 6 7 8 9 10 11 12 13 14 15 16 17 18 19 20 21 22 23 24 25 26 27 28 29
790
FTUS43 KLOT 201409 AAA
TAFDPA
TAF AMD
KDPA 201409Z 2014/2112 04011G16KT P6SM SCT008 OVC010
      TEMPO 2014/2015 6SM -SHRA OVC008
     FM201500 04012KT P6SM -SHRA SCT007 OVC012
     FM201700 05010KT P6SM SCT007 OVC020
     FM202100 05008KT P6SM FEW009 OVC022 PROB30 2109/2112 6SM -SHRA=

USA.gov is the U.S. government's official web portal to all federal, state and local government web resources and services.